Alexandria, Louisiana
Current Conditions -  °F | °C
As of 12:53 AM on Wednesday 22 Oct 2014 (Local Time) from KAEX Reporting Station
Clear Clear  
Wind Chill: 64°   Ceiling: Unl
Heat Index: 64°   Visibility: 9mi
Dew Point: 60°   Wind: 6mph
Humidity: 87%   Direction: 40°NE
Pressure: 30.04"   Gusts: NA
Location:  31.31°N, 92.44°W
Report Text: KAEX 220553Z AUTO 04005KT 9SM CLR 18/16 A3004 RMK AO2 SLP174 T01780156 10217 20167 402780111 58001
Loading
Personal Weather Stations






























Interactive Weather Map
Tropical Storm Tracking
New forecast layout! Learn more

10-Day Weather Forecast

Advertisements
Track Severe Weather on mobile